Portada
METAR-TAF:

METAR-TAF

Aeroports :

Capo Mele

Andora, Itàlia

latitud: 43-57N, longitud: 008-10E, altitud: 220 m

Observació

L'informe es va fer fa 1 hora i 0 minuts, a les 11:55 UTC
Vent 3 kt del Oest
Temperatura 14°C
Humitat 28%
Pressió 1000 hPa
Visibilitat 10 km o més
Núvols disperses a una alçada de 3300 ft

METAR: LIMU 261155Z 27003KT 9999 SCT033 14/M04 Q1000 RMK SCT QUK 3 QUL 1 S VIS MAR 20 KM VIS MIN 9999

Hora: 13:55 (12:55 UTC)


TAF: manca

Observacions i pronòstics meteorològics de més de 4000 aeroports (METAR i TAF).

Les estacions disponibles són els punts grocs i vermells al mapa.

Posi el ratolí al punt desitjat per veure el nom de l'estació.

Feu clic per veure les observacions i els pronòstics meteorològics.

Per canviar el mapa: feu clic els botons verds amb una creu de color negre per apropar; al botó verd amb un guió per allunyar la imatge; o en les fletxes verdes per a mapes adjacents.


METAR-TAF: